Time;durP1;ratioP1;P1;durP2;ratioP2;P2;SDS_P1;SDS_P2;PMS_P1;PMS_P2;Temp;Humidity;BMP_temperature;BMP_pressure;BME280_temperature;BME280_humidity;BME280_pressure;Samples;Min_cycle;Max_cycle;Signal;HPM_P1;HPM_P2
2023/06/21 00:00:45;;;;;;;19.38;10.82;;;24.20;85.60;;;;;;5091590;28;20510;-70
2023/06/21 00:03:52;;;;;;;17.25;10.68;;;24.20;87.00;;;;;;5091786;28;20047;-70
2023/06/21 00:06:56;;;;;;;18.05;10.35;;;24.20;87.40;;;;;;5091413;28;20058;-70
2023/06/21 00:10:01;;;;;;;15.57;9.93;;;24.10;87.90;;;;;;5091301;28;20047;-70
2023/06/21 00:13:05;;;;;;;17.10;10.43;;;24.10;88.80;;;;;;5090683;28;20534;-70
2023/06/21 00:16:09;;;;;;;19.42;10.57;;;24.10;88.70;;;;;;5091206;28;20043;-70
2023/06/21 00:19:13;;;;;;;12.82;9.80;;;24.10;88.20;;;;;;5091533;28;20046;-70
2023/06/21 00:22:21;;;;;;;13.85;9.75;;;24.00;87.90;;;;;;5091281;28;20044;-70
2023/06/21 00:25:26;;;;;;;16.83;9.48;;;24.00;87.60;;;;;;5091140;28;20054;-70
2023/06/21 00:28:29;;;;;;;18.13;9.38;;;23.90;87.20;;;;;;5091012;28;20051;-70
2023/06/21 00:31:33;;;;;;;16.48;10.25;;;23.90;87.70;;;;;;5091116;28;20603;-70
2023/06/21 00:34:37;;;;;;;19.65;9.77;;;23.80;87.40;;;;;;5090482;28;20046;-70
2023/06/21 00:37:44;;;;;;;19.58;10.18;;;23.90;87.50;;;;;;5091165;28;20051;-70
2023/06/21 00:40:50;;;;;;;15.18;10.10;;;23.80;87.30;;;;;;5090082;28;20090;-70
2023/06/21 00:43:54;;;;;;;15.13;11.07;;;23.80;88.00;;;;;;5090174;28;20506;-70
2023/06/21 00:46:58;;;;;;;16.65;9.82;;;23.80;88.50;;;;;;5089951;28;20067;-70
2023/06/21 00:50:01;;;;;;;14.13;9.30;;;23.80;87.50;;;;;;5090816;28;20106;-70
2023/06/21 00:53:06;;;;;;;15.73;9.55;;;23.70;87.60;;;;;;5089789;28;20051;-70
2023/06/21 00:56:10;;;;;;;19.65;9.75;;;23.70;87.40;;;;;;5091181;28;20432;-70
2023/06/21 00:59:14;;;;;;;19.98;9.23;;;23.60;86.30;;;;;;5091027;28;20043;-70
2023/06/21 01:02:18;;;;;;;18.20;9.80;;;23.60;86.30;;;;;;5090870;28;20047;-70
2023/06/21 01:05:24;;;;;;;14.57;10.05;;;23.60;85.10;;;;;;5090895;28;20055;-70
2023/06/21 01:08:37;;;;;;;16.45;9.90;;;23.60;85.50;;;;;;5092346;28;20075;-69
2023/06/21 01:11:52;;;;;;;15.48;9.90;;;23.70;85.90;;;;;;5094534;28;20121;-70
2023/06/21 01:15:04;;;;;;;15.73;9.23;;;23.70;86.40;;;;;;5094821;28;20059;-70
2023/06/21 01:18:13;;;;;;;16.15;9.68;;;23.80;85.80;;;;;;5094767;28;20051;-70
2023/06/21 01:21:22;;;;;;;14.52;8.70;;;23.90;85.70;;;;;;5093781;28;20035;-70
2023/06/21 01:24:41;;;;;;;13.48;9.55;;;24.00;85.20;;;;;;5094212;28;20075;-70
2023/06/21 01:28:23;;;;;;;14.93;10.07;;;23.80;86.00;;;;;;5093695;28;20071;-70
2023/06/21 01:31:28;;;;;;;12.57;9.15;;;23.60;86.70;;;;;;5094505;28;20412;-70
2023/06/21 01:34:34;;;;;;;15.88;9.98;;;23.50;87.30;;;;;;5094310;28;20043;-70
2023/06/21 01:37:42;;;;;;;14.00;9.30;;;23.40;87.00;;;;;;5094532;28;20047;-70
2023/06/21 01:40:46;;;;;;;14.93;8.35;;;23.40;86.70;;;;;;5094149;28;20051;-70
2023/06/21 01:43:52;;;;;;;14.88;8.88;;;23.40;86.50;;;;;;5094044;28;20039;-70
2023/06/21 01:46:58;;;;;;;13.05;9.02;;;23.40;86.10;;;;;;5093114;28;20055;-70
2023/06/21 01:50:09;;;;;;;14.70;8.48;;;23.40;86.00;;;;;;5093930;28;20043;-70
2023/06/21 01:53:15;;;;;;;15.82;8.48;;;23.40;86.20;;;;;;5094569;28;20043;-70
2023/06/21 01:56:19;;;;;;;13.80;7.95;;;23.40;85.40;;;;;;5094050;28;20043;-70
2023/06/21 01:59:23;;;;;;;11.63;8.45;;;23.30;85.10;;;;;;5093068;28;20043;-70
2023/06/21 02:02:27;;;;;;;10.05;7.15;;;23.20;85.50;;;;;;5092969;28;20043;-70
2023/06/21 02:05:33;;;;;;;8.82;7.22;;;23.30;84.70;;;;;;5092930;28;20039;-70
2023/06/21 02:08:38;;;;;;;8.32;6.97;;;23.30;84.30;;;;;;5093871;28;20062;-70
2023/06/21 02:11:44;;;;;;;8.48;6.40;;;23.30;83.80;;;;;;5092697;28;20058;-70
2023/06/21 02:14:48;;;;;;;10.48;7.40;;;23.30;83.80;;;;;;5093658;28;20039;-70
2023/06/21 02:17:52;;;;;;;10.45;6.90;;;23.30;83.50;;;;;;5092954;28;20051;-70
2023/06/21 02:20:58;;;;;;;11.13;7.50;;;23.30;84.00;;;;;;5092810;28;20051;-70
2023/06/21 02:24:03;;;;;;;11.43;8.05;;;23.20;84.40;;;;;;5093007;28;20111;-70
2023/06/21 02:27:08;;;;;;;8.60;6.53;;;23.20;84.30;;;;;;5093288;28;20051;-69
2023/06/21 02:30:12;;;;;;;8.18;6.40;;;23.20;84.00;;;;;;5093566;28;20403;-70
2023/06/21 02:33:16;;;;;;;12.80;6.80;;;23.10;83.80;;;;;;5093142;28;20047;-70
2023/06/21 02:36:20;;;;;;;11.73;7.20;;;23.00;84.30;;;;;;5092482;28;20534;-70
2023/06/21 02:39:24;;;;;;;9.13;7.00;;;23.00;84.80;;;;;;5092703;28;20526;-70
2023/06/21 02:42:32;;;;;;;14.38;7.70;;;23.00;85.30;;;;;;5092683;28;20043;-70
2023/06/21 02:45:36;;;;;;;11.65;7.55;;;23.00;86.40;;;;;;5092513;28;20047;-70
2023/06/21 02:48:40;;;;;;;9.57;7.72;;;22.90;86.90;;;;;;5092091;28;20472;-70
2023/06/21 02:51:49;;;;;;;10.00;7.32;;;22.80;87.30;;;;;;5092939;28;20039;-70
2023/06/21 02:54:53;;;;;;;9.05;7.25;;;22.80;87.30;;;;;;5093042;28;20395;-70
2023/06/21 02:57:57;;;;;;;10.05;7.72;;;22.80;86.50;;;;;;5092009;28;20039;-70
2023/06/21 03:01:01;;;;;;;10.02;6.70;;;22.80;85.90;;;;;;5092870;28;20506;-70
2023/06/21 03:04:05;;;;;;;12.95;7.10;;;22.80;86.00;;;;;;5092774;28;20039;-70
2023/06/21 03:07:09;;;;;;;9.20;7.57;;;22.80;87.10;;;;;;5092674;28;20122;-70
2023/06/21 03:10:14;;;;;;;9.25;7.55;;;22.80;87.00;;;;;;5092172;28;20047;-70
2023/06/21 03:13:18;;;;;;;9.15;7.68;;;22.70;87.30;;;;;;5092496;28;20543;-69
2023/06/21 03:16:22;;;;;;;11.75;7.82;;;22.80;87.10;;;;;;5091987;28;20507;-70
2023/06/21 03:19:26;;;;;;;12.55;7.47;;;22.80;86.70;;;;;;5091461;28;20058;-70
2023/06/21 03:22:30;;;;;;;16.10;8.82;;;22.80;87.10;;;;;;5091649;28;20051;-70
2023/06/21 03:25:34;;;;;;;9.75;7.65;;;22.80;88.10;;;;;;5092588;28;20035;-70
2023/06/21 03:28:41;;;;;;;11.70;7.30;;;22.70;87.80;;;;;;5091220;28;20436;-70
2023/06/21 03:31:47;;;;;;;12.52;7.70;;;22.60;87.80;;;;;;5091398;28;20043;-70
2023/06/21 03:34:51;;;;;;;9.75;6.95;;;22.60;87.40;;;;;;5091144;28;20047;-70
2023/06/21 03:37:55;;;;;;;15.43;7.82;;;22.60;87.90;;;;;;5092242;28;20062;-70
2023/06/21 03:41:06;;;;;;;11.35;7.70;;;22.60;87.90;;;;;;5091381;28;20139;-69
2023/06/21 03:44:10;;;;;;;16.17;7.72;;;22.60;87.90;;;;;;5091106;28;20043;-69
2023/06/21 03:47:14;;;;;;;16.27;8.27;;;22.60;88.00;;;;;;5090951;28;20050;-70
2023/06/21 03:50:19;;;;;;;13.93;7.70;;;22.60;87.80;;;;;;5091222;28;20063;-70
2023/06/21 03:53:27;;;;;;;17.73;8.88;;;22.70;87.80;;;;;;5090880;28;20207;-70
2023/06/21 03:56:31;;;;;;;15.10;8.63;;;22.60;88.40;;;;;;5091009;28;20502;-70
2023/06/21 03:59:37;;;;;;;18.02;7.50;;;22.50;89.20;;;;;;5090655;28;20518;-70
2023/06/21 04:02:40;;;;;;;18.17;8.68;;;22.50;89.20;;;;;;5090590;28;20043;-70
2023/06/21 04:05:45;;;;;;;14.40;8.43;;;22.50;89.10;;;;;;5090973;28;20051;-70
2023/06/21 04:08:48;;;;;;;15.63;8.07;;;22.50;89.40;;;;;;5090490;28;20047;-69
2023/06/21 04:11:52;;;;;;;14.30;8.70;;;22.60;89.80;;;;;;5091212;28;20063;-70
2023/06/21 04:14:57;;;;;;;16.95;8.43;;;22.60;89.60;;;;;;5090747;28;20043;-70
2023/06/21 04:18:02;;;;;;;21.08;8.40;;;22.60;89.90;;;;;;5090315;28;20043;-70
2023/06/21 04:21:06;;;;;;;27.30;8.90;;;22.60;90.00;;;;;;5090245;28;20229;-69
2023/06/21 04:24:09;;;;;;;13.65;8.00;;;22.60;89.90;;;;;;5090394;28;20550;-70
2023/06/21 04:27:13;;;;;;;16.50;6.97;;;22.60;89.70;;;;;;5090280;28;20055;-69
2023/06/21 04:30:17;;;;;;;12.02;8.45;;;22.70;88.70;;;;;;5090810;28;20042;-70
2023/06/21 04:33:21;;;;;;;11.73;7.70;;;22.90;88.60;;;;;;5091296;28;20043;-70
2023/06/21 04:36:26;;;;;;;19.30;8.95;;;22.80;88.80;;;;;;5091274;28;20043;-70
2023/06/21 04:39:29;;;;;;;15.63;9.55;;;22.70;89.20;;;;;;5090992;28;20059;-70
2023/06/21 04:42:33;;;;;;;16.90;8.88;;;22.80;89.10;;;;;;5090342;28;20402;-70
2023/06/21 04:45:37;;;;;;;20.00;9.48;;;22.90;88.60;;;;;;5091011;28;20055;-70
2023/06/21 04:48:41;;;;;;;17.77;9.50;;;23.10;88.70;;;;;;5091237;28;20404;-70
2023/06/21 04:51:45;;;;;;;15.80;8.38;;;23.10;88.40;;;;;;5091243;28;20047;-70
2023/06/21 04:54:49;;;;;;;16.15;7.82;;;23.10;87.50;;;;;;5090543;28;20047;-70
2023/06/21 04:57:55;;;;;;;18.50;8.23;;;23.00;87.90;;;;;;5090944;28;20047;-70
2023/06/21 05:01:00;;;;;;;21.77;8.48;;;23.10;87.80;;;;;;5090380;28;20043;-70
2023/06/21 05:04:03;;;;;;;28.05;9.45;;;23.20;87.20;;;;;;5090723;28;20047;-70
2023/06/21 05:07:07;;;;;;;25.02;10.05;;;23.20;86.90;;;;;;5090592;28;20063;-69
2023/06/21 05:10:11;;;;;;;28.02;9.63;;;23.40;86.90;;;;;;5090308;28;20055;-70
2023/06/21 05:13:15;;;;;;;30.63;9.27;;;23.70;86.60;;;;;;5090914;28;20471;-70
2023/06/21 05:16:19;;;;;;;38.20;11.05;;;24.00;86.10;;;;;;5090449;28;20047;-70
2023/06/21 05:19:23;;;;;;;29.70;11.27;;;24.20;85.10;;;;;;5090642;28;20055;-70
2023/06/21 05:22:27;;;;;;;30.80;11.23;;;24.30;84.70;;;;;;5090598;28;20063;-70
2023/06/21 05:25:31;;;;;;;19.30;10.35;;;24.50;85.00;;;;;;5089789;28;20043;-70
2023/06/21 05:28:35;;;;;;;25.10;12.63;;;24.80;83.80;;;;;;5090620;28;20510;-70
2023/06/21 05:31:41;;;;;;;15.35;10.32;;;24.90;83.00;;;;;;5090771;28;20043;-70
2023/06/21 05:34:46;;;;;;;23.77;10.75;;;25.00;83.80;;;;;;5090810;28;20055;-70
2023/06/21 05:37:52;;;;;;;30.30;9.52;;;25.10;84.10;;;;;;5090655;28;20051;-70
2023/06/21 05:40:56;;;;;;;24.98;9.80;;;25.20;84.30;;;;;;5090908;28;20054;-70
2023/06/21 05:44:00;;;;;;;23.92;9.35;;;25.30;83.90;;;;;;5090603;28;20387;-70
2023/06/21 05:47:05;;;;;;;14.77;8.75;;;25.40;83.70;;;;;;5090332;28;20051;-70
2023/06/21 05:50:09;;;;;;;17.23;9.20;;;25.50;83.40;;;;;;5090372;28;20050;-70
2023/06/21 05:53:13;;;;;;;17.67;8.30;;;25.70;83.30;;;;;;5090567;28;20051;-70
2023/06/21 05:56:17;;;;;;;16.13;9.00;;;25.90;83.20;;;;;;5094181;28;20047;-70
2023/06/21 05:59:21;;;;;;;29.85;9.80;;;25.90;83.50;;;;;;5094207;28;20059;-70
2023/06/21 06:02:25;;;;;;;27.83;10.07;;;26.10;83.00;;;;;;5094394;28;20198;-70
2023/06/21 06:05:29;;;;;;;24.58;10.57;;;26.30;81.60;;;;;;5093892;28;20122;-70
2023/06/21 06:08:32;;;;;;;25.80;10.00;;;26.40;80.80;;;;;;5093635;28;20055;-70
2023/06/21 06:11:36;;;;;;;24.60;9.30;;;26.50;82.20;;;;;;5093653;28;20063;-71
2023/06/21 06:14:41;;;;;;;29.98;9.60;;;26.80;81.20;;;;;;5093524;28;20047;-71
2023/06/21 06:17:46;;;;;;;33.85;9.82;;;27.00;78.80;;;;;;5093463;28;20050;-73
2023/06/21 06:20:50;;;;;;;20.50;8.50;;;27.30;78.70;;;;;;5093362;28;20043;-71
2023/06/21 06:23:54;;;;;;;31.63;9.70;;;27.50;78.00;;;;;;5093464;28;20058;-69
2023/06/21 06:26:58;;;;;;;16.10;9.13;;;27.60;77.70;;;;;;5093677;28;20051;-70
2023/06/21 06:30:03;;;;;;;24.13;10.15;;;27.80;77.80;;;;;;5093319;28;20565;-71
2023/06/21 06:33:07;;;;;;;44.63;13.23;;;28.10;78.60;;;;;;5093478;28;20051;-72
2023/06/21 06:36:11;;;;;;;25.23;10.95;;;28.30;78.90;;;;;;5093232;28;20054;-72
2023/06/21 06:39:15;;;;;;;19.33;11.07;;;28.20;79.20;;;;;;5093438;28;20046;-69
2023/06/21 06:42:19;;;;;;;20.23;10.82;;;28.40;79.00;;;;;;5093168;28;20051;-72
2023/06/21 06:45:23;;;;;;;15.70;8.40;;;28.50;77.80;;;;;;5092219;28;20507;-72
2023/06/21 06:48:27;;;;;;;24.88;8.60;;;28.60;76.20;;;;;;5093321;28;20062;-72
2023/06/21 06:51:31;;;;;;;17.83;8.05;;;28.80;76.00;;;;;;5092935;28;20039;-72
2023/06/21 06:54:35;;;;;;;10.85;7.45;;;28.90;75.30;;;;;;5093068;28;20047;-68
2023/06/21 06:57:39;;;;;;;14.30;7.88;;;29.00;74.70;;;;;;5092956;28;20043;-71
2023/06/21 07:00:43;;;;;;;18.98;8.07;;;29.20;74.40;;;;;;5092896;28;20047;-70
2023/06/21 07:03:47;;;;;;;15.63;6.90;;;29.30;74.10;;;;;;5092910;28;20047;-70
2023/06/21 07:06:51;;;;;;;13.77;7.38;;;29.40;74.30;;;;;;5091781;28;20047;-73
2023/06/21 07:09:55;;;;;;;14.45;6.75;;;29.60;73.10;;;;;;5092173;28;20055;-70
2023/06/21 07:13:02;;;;;;;18.27;8.00;;;29.80;73.80;;;;;;5092536;28;20399;-72
2023/06/21 07:16:06;;;;;;;19.13;8.93;;;29.90;73.20;;;;;;5092295;28;20055;-72
2023/06/21 07:19:09;;;;;;;24.17;8.82;;;30.10;73.10;;;;;;5091448;28;20502;-71
2023/06/21 07:22:13;;;;;;;23.48;8.77;;;30.20;74.20;;;;;;5092606;28;20039;-68
2023/06/21 07:25:17;;;;;;;18.67;7.40;;;30.30;72.10;;;;;;5092209;28;20475;-69
2023/06/21 07:28:21;;;;;;;16.50;7.57;;;30.40;71.70;;;;;;5092105;28;20051;-70
2023/06/21 07:31:25;;;;;;;17.02;7.65;;;30.30;71.00;;;;;;5092479;28;20043;-71
2023/06/21 07:34:29;;;;;;;17.83;7.88;;;30.20;72.40;;;;;;5092194;28;20093;-72
2023/06/21 07:37:33;;;;;;;13.20;5.40;;;30.40;71.70;;;;;;5092398;28;20035;-69
2023/06/21 07:40:37;;;;;;;14.75;6.32;;;30.70;69.80;;;;;;5092237;28;20054;-70
2023/06/21 07:43:42;;;;;;;12.57;6.38;;;30.90;70.60;;;;;;5092104;28;20404;-71
2023/06/21 07:46:51;;;;;;;17.92;5.68;;;31.10;69.40;;;;;;5091527;28;20506;-69
2023/06/21 07:49:55;;;;;;;16.80;7.22;;;31.30;69.50;;;;;;5091814;28;20054;-72
2023/06/21 07:52:58;;;;;;;19.83;7.63;;;31.30;69.20;;;;;;5092181;28;20051;-70
2023/06/21 07:56:02;;;;;;;17.83;6.97;;;31.20;69.60;;;;;;5091270;28;20051;-70
2023/06/21 07:59:06;;;;;;;14.35;6.90;;;31.30;69.70;;;;;;5091893;28;20055;-70
2023/06/21 08:02:10;;;;;;;18.60;7.35;;;31.50;70.20;;;;;;5091801;28;20051;-70
2023/06/21 08:05:14;;;;;;;15.68;6.57;;;31.60;69.60;;;;;;5091688;28;20050;-70
2023/06/21 08:08:20;;;;;;;31.75;7.25;;;31.70;69.10;;;;;;5091286;28;20074;-71
2023/06/21 08:11:24;;;;;;;30.10;8.02;;;31.80;68.30;;;;;;5091643;28;20039;-68
2023/06/21 08:14:28;;;;;;;47.17;8.68;;;31.90;68.70;;;;;;5092284;28;20050;-70
2023/06/21 08:17:32;;;;;;;9.48;5.45;;;31.90;68.80;;;;;;5091375;28;20047;-70
2023/06/21 08:20:36;;;;;;;16.25;5.93;;;32.10;68.20;;;;;;5091538;28;20049;-71
2023/06/21 08:23:39;;;;;;;10.75;6.40;;;32.20;68.50;;;;;;5091318;28;20063;-70
2023/06/21 08:26:43;;;;;;;17.10;5.93;;;32.40;68.20;;;;;;5091452;28;20055;-72
2023/06/21 08:29:47;;;;;;;14.52;6.65;;;32.40;67.50;;;;;;5091046;28;20394;-71
2023/06/21 08:32:51;;;;;;;16.27;7.50;;;32.50;67.90;;;;;;5090952;28;20043;-69
2023/06/21 08:35:55;;;;;;;15.00;6.68;;;32.70;68.20;;;;;;5091179;28;20039;-70
2023/06/21 08:38:59;;;;;;;16.70;7.00;;;32.70;67.90;;;;;;5091125;28;20046;-72
2023/06/21 08:42:04;;;;;;;17.65;7.97;;;32.80;67.60;;;;;;5090976;28;20395;-72
2023/06/21 08:45:08;;;;;;;22.27;8.40;;;32.80;67.80;;;;;;5091346;28;20039;-72
2023/06/21 08:48:13;;;;;;;15.27;8.15;;;32.90;67.30;;;;;;5090682;28;20055;-72
2023/06/21 08:51:18;;;;;;;16.90;7.95;;;32.80;67.90;;;;;;5089845;28;20046;-73
2023/06/21 08:54:26;;;;;;;19.92;8.75;;;32.80;68.30;;;;;;5090890;28;20518;-71
2023/06/21 08:57:38;;;;;;;14.48;7.93;;;32.80;68.10;;;;;;5090728;28;20051;-71
2023/06/21 09:00:47;;;;;;;15.32;6.97;;;32.80;68.10;;;;;;5090849;28;20043;-69
2023/06/21 09:03:58;;;;;;;17.10;7.20;;;32.90;68.40;;;;;;5090767;28;20086;-71
2023/06/21 09:07:03;;;;;;;18.60;7.50;;;33.00;68.00;;;;;;5090973;28;20055;-70
2023/06/21 09:10:08;;;;;;;20.05;8.52;;;33.10;68.20;;;;;;5090281;28;20062;-71
2023/06/21 09:13:13;;;;;;;24.77;8.00;;;33.20;68.40;;;;;;5090607;28;20051;-69
2023/06/21 09:16:19;;;;;;;15.35;6.50;;;33.30;68.20;;;;;;5090485;28;20407;-71
2023/06/21 09:19:22;;;;;;;18.33;6.80;;;33.30;67.60;;;;;;5090733;28;20067;-68
2023/06/21 09:22:28;;;;;;;11.63;6.78;;;33.30;67.20;;;;;;5090657;28;20047;-68
2023/06/21 09:25:32;;;;;;;14.50;7.25;;;33.30;67.10;;;;;;5090492;28;20055;-70
2023/06/21 09:28:37;;;;;;;18.30;7.72;;;33.30;68.00;;;;;;5090711;28;20059;-70
2023/06/21 09:31:41;;;;;;;297.17;31.75;;;33.40;67.70;;;;;;5094365;28;20399;-70
2023/06/21 09:34:45;;;;;;;66.07;11.48;;;33.30;68.20;;;;;;5094491;28;20062;-69
2023/06/21 09:37:49;;;;;;;10.88;6.45;;;33.30;67.70;;;;;;5094087;28;20043;-68
2023/06/21 09:40:54;;;;;;;16.05;6.40;;;33.30;67.20;;;;;;5094454;28;20039;-69
2023/06/21 09:43:59;;;;;;;15.07;7.07;;;33.40;67.30;;;;;;5093011;28;20059;-70
2023/06/21 09:47:04;;;;;;;15.07;6.78;;;33.40;67.30;;;;;;5093850;28;20051;-70
2023/06/21 09:50:09;;;;;;;19.92;6.90;;;33.50;67.20;;;;;;5094033;28;20047;-69
2023/06/21 09:53:23;;;;;;;16.33;7.18;;;33.50;67.50;;;;;;5094246;28;20055;-71
2023/06/21 09:56:27;;;;;;;16.05;7.00;;;33.50;67.90;;;;;;5093681;28;20511;-69
2023/06/21 09:59:37;;;;;;;16.92;7.22;;;33.60;67.80;;;;;;5093491;28;20090;-71
2023/06/21 10:02:41;;;;;;;15.70;7.65;;;33.60;68.00;;;;;;5093747;28;20510;-70
2023/06/21 10:05:53;;;;;;;10.43;7.40;;;33.50;68.00;;;;;;5093765;28;20039;-71
2023/06/21 10:08:59;;;;;;;12.82;7.68;;;33.50;67.80;;;;;;5093368;28;20067;-70
2023/06/21 10:12:06;;;;;;;46.58;9.38;;;33.50;66.00;;;;;;5093683;28;20471;-69
2023/06/21 10:15:13;;;;;;;17.05;7.53;;;33.50;66.50;;;;;;5093601;28;20050;-68
2023/06/21 10:18:18;;;;;;;13.77;7.03;;;33.40;67.00;;;;;;5093406;28;20047;-70
2023/06/21 10:21:22;;;;;;;22.90;8.60;;;33.40;67.40;;;;;;5093515;28;20051;-69
2023/06/21 10:24:31;;;;;;;13.50;6.95;;;33.40;66.50;;;;;;5093735;28;20051;-69
2023/06/21 10:27:37;;;;;;;14.43;7.45;;;33.40;67.60;;;;;;5093453;28;20400;-71
2023/06/21 10:30:44;;;;;;;14.02;6.82;;;33.40;67.20;;;;;;5092786;28;20043;-67
2023/06/21 10:33:49;;;;;;;30.33;8.55;;;33.40;67.40;;;;;;5093206;28;20043;-69
2023/06/21 10:37:02;;;;;;;13.65;6.47;;;33.40;67.80;;;;;;5093370;28;20043;-68
2023/06/21 10:40:07;;;;;;;12.57;6.95;;;33.50;67.30;;;;;;5093408;28;20047;-70
2023/06/21 10:43:13;;;;;;;13.73;6.65;;;33.50;66.50;;;;;;5093161;28;20391;-71
2023/06/21 10:46:17;;;;;;;10.70;6.07;;;33.50;67.60;;;;;;5092890;28;20051;-70
2023/06/21 10:49:21;;;;;;;18.80;8.57;;;33.40;68.00;;;;;;5092805;28;20055;-71
2023/06/21 10:52:26;;;;;;;17.02;7.53;;;33.40;67.90;;;;;;5093300;28;20051;-69
2023/06/21 10:55:31;;;;;;;14.88;7.10;;;33.40;67.90;;;;;;5093054;28;20047;-70
2023/06/21 10:58:35;;;;;;;20.25;7.38;;;33.40;68.90;;;;;;5092674;28;20035;-69
2023/06/21 11:01:39;;;;;;;15.77;7.28;;;33.30;69.10;;;;;;5092881;28;20043;-70
2023/06/21 11:05:11;;;;;;;10.65;6.70;;;33.20;69.10;;;;;;5092423;28;20043;-69
2023/06/21 11:08:15;;;;;;;16.42;7.65;;;33.20;69.60;;;;;;5090576;28;20055;-69
2023/06/21 11:11:29;;;;;;;22.05;7.93;;;33.20;69.30;;;;;;5091653;28;20047;-69
2023/06/21 11:14:34;;;;;;;13.35;7.80;;;33.20;70.00;;;;;;5090913;28;20510;-68
2023/06/21 11:17:39;;;;;;;15.20;7.55;;;33.10;70.30;;;;;;5092192;28;20380;-68
2023/06/21 11:20:51;;;;;;;13.85;8.32;;;33.10;71.20;;;;;;5091991;28;20051;-68
2023/06/21 11:23:55;;;;;;;19.38;7.07;;;33.10;71.20;;;;;;5092159;28;20047;-68
2023/06/21 11:27:04;;;;;;;19.15;10.10;;;33.00;70.00;;;;;;5092519;28;20047;-69
2023/06/21 11:30:10;;;;;;;39.03;9.70;;;33.00;70.60;;;;;;5091995;28;20058;-68
2023/06/21 11:33:20;;;;;;;13.25;7.93;;;33.10;71.80;;;;;;5092089;28;20396;-68
2023/06/21 11:36:30;;;;;;;18.85;8.55;;;33.10;71.70;;;;;;5092120;28;20403;-69
2023/06/21 11:39:38;;;;;;;12.82;7.95;;;33.10;72.10;;;;;;5091533;28;20387;-69
2023/06/21 11:42:46;;;;;;;12.13;8.13;;;33.10;72.40;;;;;;5091794;28;20047;-68
2023/06/21 11:46:00;;;;;;;15.75;8.98;;;33.10;72.80;;;;;;5092127;28;20040;-69
2023/06/21 11:49:03;;;;;;;21.27;8.52;;;33.00;73.00;;;;;;5091495;28;20059;-69
2023/06/21 11:52:07;;;;;;;16.45;9.60;;;33.00;72.50;;;;;;5091341;28;20043;-68
2023/06/21 11:55:13;;;;;;;13.23;8.32;;;33.00;73.30;;;;;;5091652;28;20047;-69
2023/06/21 11:58:17;;;;;;;13.30;8.70;;;33.00;72.90;;;;;;5091670;28;20383;-68
2023/06/21 12:01:21;;;;;;;13.63;8.27;;;33.00;72.10;;;;;;5091647;28;20046;-69
2023/06/21 12:04:28;;;;;;;14.93;8.77;;;33.00;72.40;;;;;;5091858;28;20042;-67
2023/06/21 12:07:32;;;;;;;13.73;8.63;;;33.00;72.80;;;;;;5090974;28;20050;-67
2023/06/21 12:10:36;;;;;;;8.82;6.82;;;32.90;72.80;;;;;;5091493;28;20506;-67
2023/06/21 12:13:41;;;;;;;10.50;7.80;;;32.90;72.90;;;;;;5091677;28;20395;-68
2023/06/21 12:16:49;;;;;;;15.68;8.60;;;32.90;73.20;;;;;;5091439;28;20050;-68
2023/06/21 12:20:01;;;;;;;12.45;7.93;;;33.00;72.80;;;;;;5090479;28;20046;-71
2023/06/21 12:23:09;;;;;;;12.38;7.90;;;32.90;72.50;;;;;;5091262;28;20043;-71
2023/06/21 12:26:17;;;;;;;15.52;8.68;;;33.00;72.50;;;;;;5091266;28;20047;-72
2023/06/21 12:29:21;;;;;;;16.83;8.05;;;32.90;72.70;;;;;;5090690;28;20070;-69
2023/06/21 12:32:25;;;;;;;12.80;7.25;;;32.90;72.60;;;;;;5091299;28;20055;-70
2023/06/21 12:35:35;;;;;;;16.15;8.05;;;32.90;71.40;;;;;;5091347;28;20506;-67
2023/06/21 12:38:41;;;;;;;19.63;9.43;;;32.90;71.30;;;;;;5090876;28;20043;-67
2023/06/21 12:41:45;;;;;;;17.92;8.38;;;32.80;70.80;;;;;;5091236;28;20309;-67
2023/06/21 12:44:56;;;;;;;16.98;7.70;;;32.80;70.70;;;;;;5091025;28;20106;-69
2023/06/21 12:48:00;;;;;;;13.40;7.20;;;32.80;70.10;;;;;;5090740;28;20059;-69
2023/06/21 12:51:04;;;;;;;11.88;6.72;;;32.80;69.70;;;;;;5091285;28;20054;-70
2023/06/21 12:54:20;;;;;;;9.07;7.13;;;32.80;69.70;;;;;;5091052;28;20051;-68
2023/06/21 12:57:26;;;;;;;11.38;6.47;;;32.70;68.90;;;;;;5090231;28;20408;-68
2023/06/21 13:00:30;;;;;;;11.82;6.30;;;32.70;68.20;;;;;;5090746;28;20042;-69
2023/06/21 13:03:35;;;;;;;12.10;6.32;;;32.70;67.80;;;;;;5091291;28;20047;-70
2023/06/21 13:06:39;;;;;;;11.38;7.25;;;32.70;67.00;;;;;;5095043;28;20047;-70
2023/06/21 13:09:43;;;;;;;11.98;5.68;;;32.70;67.00;;;;;;5094648;28;20074;-68
2023/06/21 13:12:47;;;;;;;7.85;5.63;;;32.60;66.20;;;;;;5095188;28;20047;-70
2023/06/21 13:15:52;;;;;;;11.60;5.40;;;32.60;65.80;;;;;;5094864;28;20586;-70
2023/06/21 13:18:55;;;;;;;14.40;5.97;;;32.60;65.50;;;;;;5095095;28;20059;-69
2023/06/21 13:21:59;;;;;;;8.82;5.22;;;32.60;65.60;;;;;;5094761;28;20047;-69
2023/06/21 13:25:04;;;;;;;11.30;5.38;;;32.60;65.80;;;;;;5094669;28;20044;-70
2023/06/21 13:28:07;;;;;;;6.55;4.90;;;32.60;65.20;;;;;;5094845;28;20069;-69
2023/06/21 13:31:13;;;;;;;10.73;5.28;;;32.60;65.20;;;;;;5094693;28;20047;-69
2023/06/21 13:34:17;;;;;;;13.88;5.45;;;32.60;64.70;;;;;;5094566;28;20050;-71
2023/06/21 13:37:21;;;;;;;8.02;5.05;;;32.60;64.60;;;;;;5094512;28;20051;-71
2023/06/21 13:40:26;;;;;;;9.20;4.70;;;32.60;64.40;;;;;;5093288;28;20047;-70
2023/06/21 13:43:30;;;;;;;8.50;4.85;;;32.60;64.60;;;;;;5094264;28;20043;-69
2023/06/21 13:46:34;;;;;;;14.38;6.15;;;32.60;64.40;;;;;;5094429;28;20039;-69
2023/06/21 13:49:38;;;;;;;7.28;5.10;;;32.60;64.20;;;;;;5093977;28;20530;-71
2023/06/21 13:52:42;;;;;;;7.07;5.18;;;32.50;64.00;;;;;;5093901;28;20050;-69
2023/06/21 13:55:46;;;;;;;7.20;4.70;;;32.50;64.20;;;;;;5094168;28;20066;-69
2023/06/21 13:58:49;;;;;;;7.00;4.80;;;32.50;64.20;;;;;;5093982;28;20395;-70
2023/06/21 14:01:53;;;;;;;8.27;5.03;;;32.50;64.10;;;;;;5094261;28;20051;-69
2023/06/21 14:04:57;;;;;;;8.88;5.07;;;32.50;64.20;;;;;;5093682;28;20035;-67
2023/06/21 14:08:02;;;;;;;75.75;10.73;;;32.50;64.10;;;;;;5093500;28;20047;-69
2023/06/21 14:11:06;;;;;;;246.35;34.78;;;32.50;64.40;;;;;;5093666;28;20059;-69
2023/06/21 14:14:10;;;;;;;15.20;5.93;;;32.50;63.70;;;;;;5093384;28;20054;-69
2023/06/21 14:17:14;;;;;;;10.57;4.82;;;32.40;63.90;;;;;;5093345;28;20039;-69
2023/06/21 14:20:18;;;;;;;13.95;6.00;;;32.50;64.30;;;;;;5093380;28;20063;-69
2023/06/21 14:23:23;;;;;;;9.60;5.13;;;32.50;64.50;;;;;;5093591;28;20047;-68
2023/06/21 14:26:27;;;;;;;8.18;5.50;;;32.50;63.80;;;;;;5093513;28;20043;-69
2023/06/21 14:29:31;;;;;;;12.52;5.25;;;32.50;62.90;;;;;;5092771;28;20055;-68
2023/06/21 14:32:34;;;;;;;11.38;5.25;;;32.50;63.10;;;;;;5093486;28;20047;-69
2023/06/21 14:35:38;;;;;;;9.82;6.28;;;32.50;63.30;;;;;;5093169;28;20039;-68
2023/06/21 14:38:42;;;;;;;11.98;4.95;;;32.50;63.10;;;;;;5093249;28;20050;-69
2023/06/21 14:41:46;;;;;;;9.52;4.70;;;32.50;63.10;;;;;;5093253;28;20047;-68
2023/06/21 14:44:50;;;;;;;11.85;5.10;;;32.50;62.70;;;;;;5093244;28;20043;-69
2023/06/21 14:47:54;;;;;;;9.65;4.68;;;32.50;62.90;;;;;;5092698;28;20047;-68
2023/06/21 14:50:59;;;;;;;11.25;5.10;;;32.50;63.10;;;;;;5092997;28;20058;-68
2023/06/21 14:54:03;;;;;;;14.50;5.82;;;32.50;62.90;;;;;;5093082;28;20039;-70
2023/06/21 14:57:09;;;;;;;15.15;6.55;;;32.50;62.90;;;;;;5092791;28;20047;-69
2023/06/21 15:00:13;;;;;;;14.50;6.72;;;32.50;62.10;;;;;;5092615;28;20392;-69
2023/06/21 15:03:17;;;;;;;9.45;4.22;;;32.50;62.60;;;;;;5092909;28;20063;-67
2023/06/21 15:06:21;;;;;;;15.85;5.88;;;32.40;62.30;;;;;;5092991;28;20043;-73
2023/06/21 15:09:26;;;;;;;10.85;4.70;;;32.40;62.30;;;;;;5092411;28;20066;-68
2023/06/21 15:12:29;;;;;;;8.40;4.80;;;32.40;61.90;;;;;;5093157;28;20039;-70
2023/06/21 15:15:33;;;;;;;9.13;4.32;;;32.40;61.90;;;;;;5092785;28;20047;-68
2023/06/21 15:18:37;;;;;;;10.50;5.07;;;32.30;61.80;;;;;;5092278;28;20047;-69
2023/06/21 15:21:41;;;;;;;15.35;5.05;;;32.30;62.00;;;;;;5092708;28;20138;-71
2023/06/21 15:24:46;;;;;;;6.90;4.28;;;32.30;62.20;;;;;;5092456;28;20039;-71
2023/06/21 15:27:50;;;;;;;9.50;4.53;;;32.30;62.50;;;;;;5091405;28;20047;-73
2023/06/21 15:30:57;;;;;;;7.22;4.38;;;32.30;62.70;;;;;;5092107;28;20047;-72
2023/06/21 15:34:01;;;;;;;7.30;4.18;;;32.30;62.70;;;;;;5092940;28;20035;-72
2023/06/21 15:37:04;;;;;;;10.20;4.40;;;32.20;62.90;;;;;;5092473;28;20360;-72
2023/06/21 15:40:09;;;;;;;12.43;4.70;;;32.30;63.20;;;;;;5092281;28;20095;-73
2023/06/21 15:43:14;;;;;;;6.55;4.10;;;32.20;63.20;;;;;;5092035;28;20039;-69
2023/06/21 15:46:17;;;;;;;22.13;5.35;;;32.20;63.50;;;;;;5091756;28;20058;-70
2023/06/21 15:49:21;;;;;;;10.00;4.88;;;32.10;63.80;;;;;;5091382;28;20062;-70
2023/06/21 15:52:25;;;;;;;8.40;4.45;;;32.10;64.00;;;;;;5092038;28;20039;-69